Time;durP1;ratioP1;P1;durP2;ratioP2;P2;SDS_P1;SDS_P2;PMS_P1;PMS_P2;Temp;Humidity;BMP_temperature;BMP_pressure;BME280_temperature;BME280_humidity;BME280_pressure;Samples;Min_cycle;Max_cycle;Signal;HPM_P1;HPM_P2
2021/08/07 00:02:03;;;;;;;2.88;2.10;;;;;;;24.43;49.53;99251.31;3478143;41;20061;-70
2021/08/07 00:04:30;;;;;;;4.85;2.00;;;;;;;24.24;49.29;99247.06;3478263;41;20326;-70
2021/08/07 00:06:56;;;;;;;3.33;1.90;;;;;;;24.41;48.72;99250.63;3479964;41;20402;-70
2021/08/07 00:09:22;;;;;;;2.47;1.52;;;;;;;24.47;47.98;99252.63;3470554;41;20034;-70
2021/08/07 00:11:48;;;;;;;3.03;1.67;;;;;;;24.43;47.87;99239.13;3478683;41;20042;-71
2021/08/07 00:14:15;;;;;;;2.50;1.80;;;;;;;24.40;48.47;99244.63;3478469;41;20139;-72
2021/08/07 00:16:41;;;;;;;3.13;1.70;;;;;;;24.26;49.22;99249.53;3477727;41;20203;-68
2021/08/07 00:19:09;;;;;;;3.22;1.80;;;;;;;24.21;48.82;99244.75;3468996;41;20042;-70
2021/08/07 00:21:35;;;;;;;5.65;1.88;;;;;;;24.21;48.85;99247.34;3478685;41;20049;-71
2021/08/07 00:24:01;;;;;;;2.22;1.50;;;;;;;24.21;49.01;99244.75;3477971;41;20042;-70
2021/08/07 00:26:26;;;;;;;2.33;1.60;;;;;;;24.18;48.82;99252.84;3468851;41;20310;-71
2021/08/07 00:28:52;;;;;;;2.80;1.90;;;;;;;24.15;49.11;99247.13;3477221;41;20441;-75
2021/08/07 00:31:19;;;;;;;10.48;1.70;;;;;;;24.07;49.04;99247.84;3481495;41;20061;-70
2021/08/07 00:33:45;;;;;;;1.70;1.40;;;;;;;24.19;49.25;99249.28;3477155;41;20038;-71
2021/08/07 00:36:11;;;;;;;2.75;1.65;;;;;;;24.18;49.28;99250.25;3487317;41;20033;-72
2021/08/07 00:38:37;;;;;;;3.60;1.90;;;;;;;24.27;48.82;99251.13;3466343;41;20042;-69
2021/08/07 00:41:09;;;;;;;3.58;1.70;;;;;;;24.21;49.43;99246.53;3467136;41;20047;-70
2021/08/07 00:43:35;;;;;;;3.70;1.55;;;;;;;24.21;49.16;99242.16;3467178;41;20383;-70
2021/08/07 00:46:01;;;;;;;4.85;1.60;;;;;;;24.13;49.47;99243.88;3459693;41;20038;-71
2021/08/07 00:48:27;;;;;;;3.80;1.50;;;;;;;24.09;49.99;99246.75;3480081;41;20056;-70
2021/08/07 00:50:53;;;;;;;2.15;1.50;;;;;;;23.97;50.23;99234.06;3486909;41;20397;-70
2021/08/07 00:53:20;;;;;;;3.95;1.48;;;;;;;23.93;50.77;99233.56;3487577;41;20041;-70
2021/08/07 00:55:47;;;;;;;1.98;1.60;;;;;;;23.95;50.75;99230.81;3477834;41;20045;-70
2021/08/07 00:58:13;;;;;;;3.85;1.85;;;;;;;24.01;50.82;99231.03;3487970;41;20436;-73
2021/08/07 01:00:39;;;;;;;2.42;1.65;;;;;;;23.89;50.79;99234.81;3488344;41;20420;-70
2021/08/07 01:03:17;;;;;;;3.92;1.75;;;;;;;24.03;50.37;99234.34;3477889;41;20038;-74
2021/08/07 01:05:55;;;;;;;8.40;1.90;;;;;;;23.78;50.96;99227.22;3487804;41;20082;-70
2021/08/07 01:08:23;;;;;;;5.30;1.90;;;;;;;23.87;50.82;99236.72;3487578;41;20038;-70
2021/08/07 01:11:08;;;;;;;2.33;1.52;;;;;;;23.57;51.34;99244.00;3487765;41;20037;-70
2021/08/07 01:13:40;;;;;;;3.40;1.60;;;;;;;23.79;50.85;99241.03;3487012;41;20333;-71
2021/08/07 01:16:28;;;;;;;2.33;1.50;;;;;;;23.60;51.76;99244.53;3488168;41;20394;-71
2021/08/07 01:18:56;;;;;;;2.55;1.67;;;;;;;23.61;51.53;99242.75;3488872;41;20045;-72
2021/08/07 01:21:33;;;;;;;3.83;1.85;;;;;;;23.54;52.46;99233.88;3487899;41;20042;-70
2021/08/07 01:24:13;;;;;;;2.25;1.58;;;;;;;23.54;52.28;99247.69;3487672;41;20049;-70
2021/08/07 01:27:06;;;;;;;3.67;1.55;;;;;;;23.54;51.95;99247.69;3488524;41;20045;-71
2021/08/07 01:29:33;;;;;;;7.72;1.67;;;;;;;23.56;52.63;99248.38;3478174;41;20045;-69
2021/08/07 01:37:19;;;;;;;2.63;1.58;;;;;;;23.52;53.26;99251.38;3485579;41;20056;-70
2021/08/07 01:39:47;;;;;;;2.08;1.50;;;;;;;23.41;52.93;99252.38;3483153;41;20048;-71
2021/08/07 01:42:14;;;;;;;4.25;1.77;;;;;;;23.33;53.59;99256.66;3478353;41;20275;-69
2021/08/07 01:44:40;;;;;;;4.22;1.50;;;;;;;23.50;53.28;99263.69;3478540;41;20046;-70
2021/08/07 01:47:26;;;;;;;2.00;1.58;;;;;;;23.44;53.12;99266.84;3478258;41;20042;-69
2021/08/07 01:50:21;;;;;;;4.57;1.73;;;;;;;23.48;52.32;99268.19;3479210;41;20049;-70
2021/08/07 01:52:52;;;;;;;1.90;1.60;;;;;;;23.38;53.47;99267.41;3487196;41;20038;-70
2021/08/07 01:55:23;;;;;;;3.00;1.60;;;;;;;23.38;53.41;99278.59;3479018;41;20468;-70
2021/08/07 01:58:06;;;;;;;3.15;1.50;;;;;;;23.38;52.87;99270.00;3478856;41;20386;-70
2021/08/07 02:00:33;;;;;;;1.83;1.50;;;;;;;23.40;53.70;99281.06;3480328;41;20034;-70
2021/08/07 02:03:00;;;;;;;2.40;1.63;;;;;;;23.36;53.61;99279.69;3478999;41;20038;-69
2021/08/07 02:05:26;;;;;;;2.90;1.67;;;;;;;23.33;53.43;99287.78;3478756;41;20098;-71
2021/08/07 02:07:52;;;;;;;2.92;2.00;;;;;;;23.28;53.90;99286.38;3479046;41;20046;-69
2021/08/07 02:10:19;;;;;;;2.70;1.50;;;;;;;23.41;53.82;99291.31;3479134;41;20099;-69
2021/08/07 02:12:47;;;;;;;4.07;1.92;;;;;;;23.44;54.12;99290.19;3480812;41;20523;-71
2021/08/07 02:15:16;;;;;;;4.55;1.73;;;;;;;23.22;54.49;99291.31;3482505;41;20398;-70
2021/08/07 02:17:45;;;;;;;2.35;1.83;;;;;;;23.25;54.87;99304.03;3481759;41;20038;-70
2021/08/07 02:20:14;;;;;;;2.42;1.80;;;;;;;23.28;54.79;99301.97;3482234;41;20063;-73
2021/08/07 02:22:43;;;;;;;3.50;1.80;;;;;;;23.27;54.63;99295.13;3478441;41;20405;-70
2021/08/07 02:25:11;;;;;;;7.65;1.80;;;;;;;23.19;55.15;99297.59;3479404;41;20424;-70
2021/08/07 02:27:37;;;;;;;3.42;2.00;;;;;;;23.19;55.45;99297.59;3481864;41;20090;-72
2021/08/07 02:30:08;;;;;;;2.35;2.00;;;;;;;23.26;55.18;99298.69;3481234;41;20060;-71
2021/08/07 02:32:36;;;;;;;4.38;2.40;;;;;;;22.82;56.88;99309.63;3474993;41;20038;-70
2021/08/07 02:35:04;;;;;;;4.55;2.70;;;;;;;22.92;55.66;99294.06;3480904;41;20042;-69
2021/08/07 02:42:35;;;;;;;3.88;2.63;;;;;;;23.01;57.05;99288.91;3491912;41;20057;-73
2021/08/07 02:45:03;;;;;;;7.93;2.70;;;;;;;22.74;58.07;99296.53;3481452;41;20081;-70
2021/08/07 02:47:29;;;;;;;4.20;2.30;;;;;;;22.76;58.68;99306.78;3480482;41;20354;-72
2021/08/07 02:49:55;;;;;;;4.25;2.60;;;;;;;23.13;58.09;99297.34;3479972;41;20057;-69
2021/08/07 02:52:21;;;;;;;4.50;2.63;;;;;;;23.03;57.83;99301.72;3475235;41;20042;-72
2021/08/07 02:54:49;;;;;;;6.75;2.60;;;;;;;22.98;58.32;99312.50;3475317;41;20038;-71
2021/08/07 02:57:17;;;;;;;3.80;2.90;;;;;;;22.94;58.48;99315.50;3474575;41;20038;-69
2021/08/07 02:59:43;;;;;;;5.68;2.63;;;;;;;23.05;57.99;99321.38;3474447;41;20420;-70
2021/08/07 03:02:10;;;;;;;3.95;2.75;;;;;;;23.20;58.07;99324.34;3475673;41;20033;-70
2021/08/07 03:04:35;;;;;;;8.65;2.50;;;;;;;23.04;58.56;99329.28;3476720;41;20046;-69
2021/08/07 03:07:02;;;;;;;6.38;3.70;;;;;;;22.73;59.76;99325.19;3477262;41;20186;-70
2021/08/07 03:09:28;;;;;;;5.85;2.90;;;;;;;23.05;59.47;99329.16;3476898;41;20045;-69
2021/08/07 03:11:54;;;;;;;3.72;2.85;;;;;;;23.18;58.69;99326.25;3474424;41;20034;-69
2021/08/07 03:14:19;;;;;;;5.65;2.85;;;;;;;22.91;60.07;99329.56;3474712;41;20779;-70
2021/08/07 03:16:45;;;;;;;3.22;2.70;;;;;;;22.89;59.46;99326.31;3476677;41;20406;-70
2021/08/07 03:19:10;;;;;;;2.90;2.35;;;;;;;23.16;59.09;99328.19;3476666;41;20399;-69
2021/08/07 03:21:36;;;;;;;6.15;3.17;;;;;;;22.90;60.15;99335.69;3473976;41;20403;-71
2021/08/07 03:24:02;;;;;;;4.70;2.72;;;;;;;23.13;59.40;99339.69;3466873;41;20438;-70
2021/08/07 03:26:28;;;;;;;3.80;2.85;;;;;;;23.29;58.83;99339.09;3475674;41;20031;-70
2021/08/07 03:28:54;;;;;;;5.47;3.35;;;;;;;23.43;58.68;99343.91;3475514;41;20098;-70
2021/08/07 03:31:20;;;;;;;4.53;2.58;;;;;;;22.85;60.19;99345.69;3477656;41;20053;-70
2021/08/07 03:33:46;;;;;;;4.13;2.80;;;;;;;23.30;59.23;99348.50;3486327;41;20037;-70
2021/08/07 03:36:12;;;;;;;4.60;3.17;;;;;;;22.97;60.38;99356.72;3478881;41;20034;-70
2021/08/07 03:38:38;;;;;;;3.70;2.85;;;;;;;23.26;59.43;99358.34;3478041;41;20060;-69
2021/08/07 03:41:04;;;;;;;5.00;2.75;;;;;;;23.20;59.36;99355.47;3477336;41;20047;-71
2021/08/07 03:51:43;;;;;;;3.95;2.58;;;;;;;22.98;60.83;99390.31;3491532;41;20060;-70
2021/08/07 03:54:09;;;;;;;9.15;3.00;;;;;;;23.11;60.01;99396.06;3495794;41;20045;-68
2021/08/07 03:56:36;;;;;;;3.60;2.83;;;;;;;23.08;60.68;99398.91;3493632;41;20045;-69
2021/08/07 03:59:02;;;;;;;3.72;2.83;;;;;;;23.33;60.31;99407.13;3488283;41;20061;-68
2021/08/07 04:01:28;;;;;;;4.28;2.60;;;;;;;22.89;61.25;99424.84;3482460;41;20048;-69
2021/08/07 04:03:53;;;;;;;4.80;2.45;;;;;;;23.01;60.75;99420.34;3485460;41;20037;-69
2021/08/07 04:06:19;;;;;;;4.72;2.75;;;;;;;23.01;60.87;99426.34;3485158;41;20145;-68
2021/08/07 04:08:45;;;;;;;4.05;2.72;;;;;;;23.11;61.41;99436.72;3484587;41;20317;-70
2021/08/07 04:11:13;;;;;;;4.30;2.90;;;;;;;23.26;60.79;99443.97;3487056;41;20415;-70
2021/08/07 04:13:39;;;;;;;4.40;2.65;;;;;;;23.43;60.38;99452.06;3488117;41;20425;-69
2021/08/07 04:16:05;;;;;;;3.90;2.67;;;;;;;23.31;60.06;99450.53;3488443;41;20138;-70
2021/08/07 04:18:31;;;;;;;5.50;2.75;;;;;;;23.18;60.80;99464.59;3487261;41;20050;-69
2021/08/07 04:20:58;;;;;;;4.88;2.80;;;;;;;23.11;61.83;99473.88;3488962;41;20097;-70
2021/08/07 04:23:23;;;;;;;5.18;3.03;;;;;;;23.31;60.65;99474.75;3490270;41;20329;-70
2021/08/07 04:25:49;;;;;;;4.65;3.00;;;;;;;23.37;60.33;99479.38;3490926;41;20119;-69
2021/08/07 04:28:15;;;;;;;4.07;2.78;;;;;;;23.29;61.25;99499.97;3490763;41;20053;-70
2021/08/07 04:30:41;;;;;;;6.85;2.60;;;;;;;23.61;59.48;99486.78;3491046;41;20033;-69
2021/08/07 04:33:08;;;;;;;4.68;2.60;;;;;;;23.51;60.04;99504.13;3491684;41;20432;-70
2021/08/07 04:35:36;;;;;;;3.92;3.10;;;;;;;23.68;60.27;99512.03;3491621;41;20049;-70
2021/08/07 04:40:32;;;;;;;4.60;3.00;;;;;;;23.75;58.49;99522.69;3489721;40;20078;-71
2021/08/07 04:42:58;;;;;;;3.63;2.70;;;;;;;23.95;59.05;99522.53;3484181;41;20034;-69
2021/08/07 04:45:24;;;;;;;4.50;2.80;;;;;;;24.37;57.55;99530.00;3475131;41;20415;-70
2021/08/07 04:48:02;;;;;;;6.40;3.10;;;;;;;24.03;58.40;99534.84;3472902;41;20045;-72
2021/08/07 04:50:32;;;;;;;5.93;2.53;;;;;;;24.62;57.17;99534.59;3472298;41;20050;-71
2021/08/07 04:55:27;;;;;;;3.97;3.00;;;;;;;24.32;57.61;99550.41;3479397;41;20171;-70
2021/08/07 05:00:23;;;;;;;4.55;2.88;;;;;;;24.81;56.69;99552.75;3482956;41;20125;-69
2021/08/07 05:05:18;;;;;;;4.05;2.58;;;;;;;24.73;55.74;99556.06;3478876;41;20450;-70
2021/08/07 05:12:43;;;;;;;3.45;2.50;;;;;;;24.83;55.59;99576.81;3474301;41;20052;-71
2021/08/07 05:15:10;;;;;;;5.05;2.55;;;;;;;25.03;55.07;99574.97;3473394;41;20102;-69
2021/08/07 05:17:37;;;;;;;2.92;2.47;;;;;;;24.68;55.29;99575.63;3472764;41;20058;-70
2021/08/07 05:20:03;;;;;;;3.05;2.60;;;;;;;24.70;55.83;99577.09;3471924;41;20038;-72
2021/08/07 05:22:29;;;;;;;6.47;2.80;;;;;;;25.48;53.26;99571.44;3477492;41;20176;-72
2021/08/07 05:24:54;;;;;;;6.03;2.40;;;;;;;25.61;53.71;99571.88;3480661;41;20067;-69
2021/08/07 05:35:15;;;;;;;4.10;2.50;;;;;;;25.56;52.24;99596.75;3492622;40;20092;-71
2021/08/07 05:37:44;;;;;;;4.00;2.40;;;;;;;25.74;52.25;99587.16;3517338;23;20042;-71
2021/08/07 05:40:12;;;;;;;5.53;2.55;;;;;;;26.05;51.32;99583.19;3476416;41;20068;-72
2021/08/07 05:42:38;;;;;;;4.72;2.20;;;;;;;25.47;52.70;99601.03;3483421;41;20033;-70
2021/08/07 05:45:06;;;;;;;4.90;2.30;;;;;;;25.57;51.53;99604.41;3474111;41;20034;-70
2021/08/07 05:47:32;;;;;;;4.03;2.55;;;;;;;25.66;51.38;99616.56;3483207;41;20052;-74
2021/08/07 05:49:58;;;;;;;2.85;2.28;;;;;;;25.69;51.71;99611.03;3482935;41;20038;-69
2021/08/07 05:52:25;;;;;;;4.75;2.40;;;;;;;25.87;51.35;99623.28;3482858;41;20038;-69
2021/08/07 05:54:51;;;;;;;3.40;2.30;;;;;;;26.10;50.76;99614.88;3482774;41;20089;-66
2021/08/07 05:57:17;;;;;;;3.30;2.33;;;;;;;26.24;50.33;99622.16;3473734;41;20049;-67
2021/08/07 05:59:43;;;;;;;3.70;2.50;;;;;;;26.01;50.64;99605.31;3474579;41;20125;-67
2021/08/07 06:02:09;;;;;;;3.88;2.45;;;;;;;25.82;50.14;99615.06;3482732;41;20049;-67
2021/08/07 06:04:35;;;;;;;8.50;2.60;;;;;;;25.98;50.11;99620.44;3482775;41;20044;-68
2021/08/07 06:07:01;;;;;;;4.18;2.20;;;;;;;26.30;49.41;99621.56;3482447;41;20077;-67
2021/08/07 06:09:27;;;;;;;2.42;2.13;;;;;;;26.48;49.16;99627.53;3452440;41;20500;-66
2021/08/07 06:11:52;;;;;;;2.85;2.30;;;;;;;26.50;49.07;99633.41;3480755;41;20133;-67
2021/08/07 06:14:19;;;;;;;3.58;2.10;;;;;;;26.18;48.89;99624.56;3474341;41;20029;-66
2021/08/07 06:16:44;;;;;;;4.28;2.20;;;;;;;26.44;48.34;99630.63;3482660;41;20037;-67
2021/08/07 06:19:10;;;;;;;3.00;2.10;;;;;;;26.75;47.63;99629.22;3451866;41;20035;-68
2021/08/07 06:21:36;;;;;;;11.90;2.90;;;;;;;26.75;48.28;99637.06;3452885;41;20027;-67
2021/08/07 06:24:02;;;;;;;12.23;2.65;;;;;;;26.64;47.44;99635.47;3452818;41;20092;-68
2021/08/07 06:26:29;;;;;;;4.38;2.08;;;;;;;26.64;47.57;99637.28;3434455;41;20136;-68
2021/08/07 06:28:55;;;;;;;3.13;2.22;;;;;;;26.91;47.21;99631.94;3434880;41;20036;-64
2021/08/07 06:31:20;;;;;;;3.88;2.30;;;;;;;27.05;46.91;99644.41;3434323;41;20055;-68
2021/08/07 06:33:47;;;;;;;4.30;2.15;;;;;;;27.07;46.68;99637.25;3434109;41;20308;-67
2021/08/07 06:36:13;;;;;;;4.68;2.10;;;;;;;26.88;46.83;99632.22;3445144;41;20087;-68
2021/08/07 06:38:41;;;;;;;4.25;2.15;;;;;;;27.54;45.86;99636.78;3467473;41;22806;-66
2021/08/07 06:41:07;;;;;;;3.30;2.20;;;;;;;27.02;45.98;99644.69;3473058;41;20091;-67
2021/08/07 06:43:33;;;;;;;2.13;1.80;;;;;;;27.15;45.97;99644.28;3482800;41;20069;-70
2021/08/07 06:45:59;;;;;;;3.67;2.20;;;;;;;27.50;45.02;99640.69;3482779;41;20044;-68
2021/08/07 06:48:25;;;;;;;3.67;2.15;;;;;;;28.05;44.62;99634.78;3482528;41;20318;-67
2021/08/07 06:50:51;;;;;;;5.07;2.08;;;;;;;27.70;44.71;99645.47;3473401;41;20033;-67
2021/08/07 06:53:17;;;;;;;5.57;2.22;;;;;;;28.07;44.60;99647.69;3482106;41;20045;-68
2021/08/07 06:55:44;;;;;;;3.05;2.13;;;;;;;27.91;44.42;99658.13;3482698;41;20370;-68
2021/08/07 06:58:10;;;;;;;3.05;2.00;;;;;;;28.57;43.18;99656.22;3474009;41;20217;-67
2021/08/07 07:00:37;;;;;;;3.90;1.92;;;;;;;28.51;42.82;99654.22;3482757;41;20042;-73
2021/08/07 07:03:03;;;;;;;4.35;2.38;;;;;;;28.28;43.30;99648.03;3482512;41;20048;-69
2021/08/07 07:05:31;;;;;;;3.92;1.90;;;;;;;28.03;43.86;99644.59;3482928;41;20029;-68
2021/08/07 07:07:57;;;;;;;4.47;1.80;;;;;;;28.10;43.48;99653.44;3482734;41;20045;-68
2021/08/07 07:10:23;;;;;;;2.65;1.92;;;;;;;28.72;41.89;99654.53;3482483;41;20057;-68
2021/08/07 07:12:49;;;;;;;4.43;1.85;;;;;;;29.06;41.77;99657.75;3481811;41;20045;-68
2021/08/07 07:15:15;;;;;;;2.67;1.95;;;;;;;28.76;42.09;99655.84;3472479;41;20341;-68
2021/08/07 07:17:40;;;;;;;2.92;2.00;;;;;;;28.55;42.07;99652.94;3471064;41;20033;-72
2021/08/07 07:20:07;;;;;;;2.25;1.90;;;;;;;28.72;41.80;99651.94;3470008;41;20069;-69
2021/08/07 07:22:33;;;;;;;2.35;1.90;;;;;;;29.31;41.00;99657.69;3469778;41;20046;-67
2021/08/07 07:25:04;;;;;;;2.08;1.88;;;;;;;28.24;42.32;99659.81;3470325;41;20026;-68
2021/08/07 07:27:30;;;;;;;3.80;2.15;;;;;;;28.47;41.51;99668.63;3471225;41;20233;-67
2021/08/07 07:29:56;;;;;;;2.03;1.75;;;;;;;29.33;40.99;99671.44;3463196;41;20388;-68
2021/08/07 07:32:22;;;;;;;4.47;1.90;;;;;;;29.24;40.89;99672.47;3470881;41;20142;-74
2021/08/07 07:34:55;;;;;;;3.88;2.00;;;;;;;28.99;41.06;99672.50;3462441;41;20155;-69
2021/08/07 07:37:21;;;;;;;3.17;1.85;;;;;;;28.68;41.70;99663.72;3471095;41;20042;-69
2021/08/07 07:39:46;;;;;;;2.50;1.83;;;;;;;29.14;41.15;99664.78;3470255;41;20045;-68
2021/08/07 07:42:13;;;;;;;3.60;1.90;;;;;;;29.10;40.23;99668.69;3470952;41;20048;-68
2021/08/07 07:44:39;;;;;;;3.33;1.80;;;;;;;29.00;39.99;99668.06;3471140;41;20333;-68
2021/08/07 07:47:06;;;;;;;3.72;1.88;;;;;;;28.65;40.78;99673.69;3470513;41;20044;-68
2021/08/07 07:49:31;;;;;;;3.50;1.80;;;;;;;29.31;40.18;99676.84;3470800;41;20295;-71
2021/08/07 07:51:57;;;;;;;1.92;1.60;;;;;;;29.26;39.63;99676.53;3473232;41;20044;-67
2021/08/07 07:54:23;;;;;;;3.25;1.73;;;;;;;29.62;39.25;99674.25;3481932;41;20437;-67
2021/08/07 07:56:49;;;;;;;2.58;1.80;;;;;;;29.45;38.95;99677.94;3482158;41;20305;-69
2021/08/07 07:59:15;;;;;;;3.17;1.50;;;;;;;29.26;39.32;99665.25;3482158;41;20044;-68
2021/08/07 08:01:41;;;;;;;3.00;1.75;;;;;;;29.31;39.92;99671.63;3482014;41;20044;-67
2021/08/07 08:04:07;;;;;;;2.75;1.70;;;;;;;29.87;38.52;99673.16;3473293;41;20298;-68
2021/08/07 08:06:33;;;;;;;2.10;1.60;;;;;;;29.95;39.21;99671.28;3472087;41;20085;-67
2021/08/07 08:08:59;;;;;;;3.47;1.98;;;;;;;30.00;38.93;99667.31;3481994;41;20052;-67
2021/08/07 08:11:25;;;;;;;2.97;1.60;;;;;;;29.75;39.35;99680.59;3482432;41;20371;-67
2021/08/07 08:13:51;;;;;;;5.47;2.13;;;;;;;30.26;38.91;99683.53;3481858;41;20066;-70
2021/08/07 08:16:16;;;;;;;2.22;1.73;;;;;;;30.35;38.49;99685.13;3482260;41;20038;-67
2021/08/07 08:18:42;;;;;;;2.38;1.92;;;;;;;30.25;39.32;99676.69;3481987;41;20117;-69
2021/08/07 08:21:09;;;;;;;3.25;1.98;;;;;;;30.67;38.46;99664.66;3481798;41;20044;-69
2021/08/07 08:23:35;;;;;;;3.20;2.20;;;;;;;30.82;38.00;99666.50;3481981;41;20122;-68
2021/08/07 08:26:02;;;;;;;2.45;1.90;;;;;;;30.95;37.07;99656.19;3473111;41;20049;-67
2021/08/07 08:28:28;;;;;;;11.00;2.42;;;;;;;30.54;37.77;99650.53;3472947;41;20424;-67
2021/08/07 08:30:54;;;;;;;4.10;2.00;;;;;;;30.50;38.49;99663.19;3481925;41;20321;-67
2021/08/07 08:33:20;;;;;;;3.22;2.13;;;;;;;30.91;37.41;99654.94;3481705;41;20341;-67
2021/08/07 08:35:46;;;;;;;3.63;2.50;;;;;;;29.98;39.05;99659.63;3481886;41;20418;-67
2021/08/07 08:38:13;;;;;;;2.72;2.00;;;;;;;30.66;37.14;99657.78;3482079;41;20033;-67
2021/08/07 08:40:39;;;;;;;2.95;1.50;;;;;;;30.27;37.67;99659.75;3481667;41;20073;-67
2021/08/07 08:43:05;;;;;;;4.65;2.00;;;;;;;30.68;36.59;99658.41;3472770;41;20071;-68
2021/08/07 08:45:31;;;;;;;1.90;1.70;;;;;;;30.85;36.38;99655.66;3482009;41;20045;-67
2021/08/07 08:47:57;;;;;;;5.50;2.30;;;;;;;31.11;35.95;99659.47;3472840;41;20057;-68
2021/08/07 08:50:23;;;;;;;3.00;1.38;;;;;;;30.61;34.67;99664.56;3481867;41;20385;-68
2021/08/07 08:52:51;;;;;;;3.47;1.50;;;;;;;31.46;33.14;99673.69;3481506;41;20048;-69
2021/08/07 08:55:17;;;;;;;1.70;1.33;;;;;;;31.01;32.78;99673.88;3481359;41;20437;-67
2021/08/07 08:57:43;;;;;;;2.55;1.20;;;;;;;31.55;32.49;99672.59;3481554;41;20041;-67
2021/08/07 09:00:11;;;;;;;2.63;1.13;;;;;;;31.01;32.13;99676.50;3481600;41;20298;-68
2021/08/07 09:02:37;;;;;;;1.42;1.10;;;;;;;30.48;32.29;99683.56;3481688;41;20038;-67
2021/08/07 09:05:05;;;;;;;2.75;1.20;;;;;;;31.35;31.99;99677.59;3481485;41;20295;-68
2021/08/07 09:07:31;;;;;;;2.08;1.42;;;;;;;31.38;33.00;99671.97;3481865;41;20066;-69
2021/08/07 09:09:57;;;;;;;1.90;1.45;;;;;;;31.30;32.56;99663.34;3481539;41;20125;-67
2021/08/07 09:12:45;;;;;;;3.40;1.58;;;;;;;31.50;33.03;99661.78;3481498;41;20038;-67
2021/08/07 09:15:43;;;;;;;2.78;1.50;;;;;;;31.94;32.06;99667.78;3481373;41;20077;-67
2021/08/07 09:18:23;;;;;;;5.85;1.70;;;;;;;31.17;32.95;99663.19;3443629;41;20444;-69
2021/08/07 09:20:52;;;;;;;8.10;1.88;;;;;;;32.28;31.28;99667.91;3443821;41;20039;-67
2021/08/07 09:23:38;;;;;;;3.55;1.45;;;;;;;32.48;31.68;99660.22;3451804;41;20054;-68
2021/08/07 09:26:19;;;;;;;3.03;1.45;;;;;;;33.11;31.33;99667.94;3433491;41;20080;-68
2021/08/07 09:28:50;;;;;;;1.95;1.10;;;;;;;31.55;32.08;99662.88;3433126;41;20047;-70
2021/08/07 09:31:17;;;;;;;1.73;1.40;;;;;;;32.28;30.80;99667.09;3425203;41;20040;-69
2021/08/07 09:33:42;;;;;;;3.97;1.20;;;;;;;32.36;30.44;99651.97;3434813;41;20036;-69
2021/08/07 09:36:08;;;;;;;1.33;1.10;;;;;;;32.03;31.41;99666.66;3442357;41;20067;-68
2021/08/07 09:38:43;;;;;;;2.10;1.27;;;;;;;32.16;30.20;99660.72;3442374;41;20131;-70
2021/08/07 09:41:09;;;;;;;2.38;1.15;;;;;;;32.10;30.75;99667.53;3441336;41;20068;-68
2021/08/07 09:43:41;;;;;;;2.58;1.17;;;;;;;33.10;29.39;99665.50;3447887;41;20059;-68
2021/08/07 09:46:20;;;;;;;1.58;1.30;;;;;;;32.22;31.04;99668.66;3451508;41;20094;-68
2021/08/07 09:48:55;;;;;;;1.67;1.20;;;;;;;32.83;30.23;99663.69;3451472;41;20043;-69
2021/08/07 09:51:33;;;;;;;2.05;1.20;;;;;;;32.21;30.20;99656.50;3443690;41;20150;-68
2021/08/07 09:54:19;;;;;;;2.28;1.27;;;;;;;33.51;28.67;99657.59;3451433;41;20040;-68
2021/08/07 09:56:54;;;;;;;2.03;1.30;;;;;;;32.73;28.87;99657.94;3443408;41;20051;-68
2021/08/07 09:59:22;;;;;;;4.40;1.40;;;;;;;33.51;29.55;99658.41;3451393;41;20410;-68
2021/08/07 10:01:49;;;;;;;4.70;1.42;;;;;;;33.17;29.50;99663.72;3451262;41;20709;-70
2021/08/07 10:04:20;;;;;;;2.83;1.25;;;;;;;33.11;29.73;99662.66;3478359;41;20335;-69
2021/08/07 10:06:47;;;;;;;3.25;1.40;;;;;;;33.50;29.07;99666.50;3484344;41;20048;-70
2021/08/07 10:09:29;;;;;;;2.10;1.30;;;;;;;32.88;29.66;99670.00;3477196;41;20037;-71
2021/08/07 10:12:06;;;;;;;2.30;1.40;;;;;;;33.00;29.77;99673.75;3489607;41;20069;-70
2021/08/07 10:14:32;;;;;;;1.20;1.10;;;;;;;32.59;29.92;99667.56;3482968;41;20493;-69
2021/08/07 10:17:01;;;;;;;3.53;1.40;;;;;;;32.85;29.52;99661.66;3471364;41;20210;-69
2021/08/07 10:19:27;;;;;;;2.55;1.20;;;;;;;33.72;28.69;99665.34;3471793;41;20476;-71
2021/08/07 10:21:54;;;;;;;3.42;1.20;;;;;;;33.23;29.83;99665.56;3482869;41;20038;-73
2021/08/07 10:24:21;;;;;;;1.58;1.15;;;;;;;33.14;28.94;99669.38;3473282;41;20174;-69
2021/08/07 10:26:50;;;;;;;3.25;1.10;;;;;;;32.73;30.19;99663.19;3482959;41;20049;-70
2021/08/07 10:29:22;;;;;;;1.48;1.25;;;;;;;33.20;29.31;99666.75;3485227;41;20046;-70
2021/08/07 10:31:49;;;;;;;1.83;1.38;;;;;;;33.50;28.94;99664.69;3483445;41;20038;-70
2021/08/07 10:34:15;;;;;;;2.83;1.30;;;;;;;33.10;28.95;99661.03;3475599;41;20074;-71
2021/08/07 10:36:43;;;;;;;2.22;1.40;;;;;;;32.93;29.60;99662.34;3477710;41;20050;-69
2021/08/07 10:39:09;;;;;;;6.20;1.30;;;;;;;32.27;30.14;99665.44;3482492;41;20125;-69
2021/08/07 10:41:37;;;;;;;2.55;1.50;;;;;;;31.18;31.94;99659.56;3472725;41;20145;-69
2021/08/07 10:44:06;;;;;;;1.65;1.17;;;;;;;32.15;30.51;99656.47;3481616;41;20137;-71
2021/08/07 10:46:32;;;;;;;1.85;1.30;;;;;;;32.29;30.52;99666.91;3483264;41;20138;-70
2021/08/07 10:48:58;;;;;;;4.65;1.50;;;;;;;31.77;31.29;99662.91;3483053;41;20038;-70
2021/08/07 10:51:24;;;;;;;1.70;1.35;;;;;;;33.40;29.31;99655.50;3486374;41;20424;-70
2021/08/07 10:53:51;;;;;;;2.42;1.38;;;;;;;32.27;31.13;99652.28;3480727;41;20034;-71
2021/08/07 10:56:29;;;;;;;3.08;1.50;;;;;;;32.58;30.74;99647.53;3485778;41;20038;-70
2021/08/07 10:59:11;;;;;;;1.42;1.23;;;;;;;33.00;30.47;99651.88;3477076;41;20458;-70
2021/08/07 11:01:44;;;;;;;2.80;1.70;;;;;;;33.40;29.74;99639.69;3475973;41;20160;-71
2021/08/07 11:04:32;;;;;;;2.65;1.23;;;;;;;33.65;29.59;99641.63;3468433;41;20046;-71
2021/08/07 11:07:04;;;;;;;5.25;1.38;;;;;;;32.89;30.05;99644.47;3477883;41;20048;-72
2021/08/07 11:09:40;;;;;;;2.88;1.30;;;;;;;32.74;30.04;99643.78;3474254;41;20102;-69
2021/08/07 11:12:06;;;;;;;2.55;1.55;;;;;;;33.49;29.78;99652.53;3475305;41;20322;-70
2021/08/07 11:14:34;;;;;;;2.78;1.30;;;;;;;34.12;28.94;99651.25;3473728;41;20049;-69
2021/08/07 11:17:06;;;;;;;1.80;1.38;;;;;;;33.68;27.99;99656.22;3473274;41;20484;-70
2021/08/07 11:19:51;;;;;;;1.42;1.10;;;;;;;33.94;27.51;99659.72;3465188;41;20061;-70
2021/08/07 11:22:41;;;;;;;1.33;1.23;;;;;;;34.72;26.93;99647.59;3473201;41;20041;-70
2021/08/07 11:25:14;;;;;;;1.83;1.38;;;;;;;34.25;27.45;99640.69;3464877;41;20065;-70
2021/08/07 11:27:52;;;;;;;2.85;1.40;;;;;;;34.55;26.97;99652.47;3473863;41;20044;-70
2021/08/07 11:30:39;;;;;;;2.50;1.20;;;;;;;34.88;27.60;99649.81;3473817;41;20041;-70
2021/08/07 11:33:11;;;;;;;4.10;1.33;;;;;;;33.09;28.83;99643.59;3473784;41;20432;-69
2021/08/07 11:35:42;;;;;;;1.83;1.30;;;;;;;33.95;27.50;99637.59;3464540;41;20050;-71
2021/08/07 11:38:22;;;;;;;1.88;1.40;;;;;;;33.17;28.80;99646.06;3473480;41;20038;-69
2021/08/07 11:41:00;;;;;;;3.05;1.30;;;;;;;33.75;28.36;99642.03;3473559;41;20126;-69
2021/08/07 11:43:49;;;;;;;2.20;1.40;;;;;;;34.89;26.87;99639.00;3464525;41;20037;-70
2021/08/07 11:46:16;;;;;;;1.50;1.27;;;;;;;34.47;27.05;99634.19;3473058;41;20053;-69
2021/08/07 11:48:45;;;;;;;2.85;1.50;;;;;;;34.17;28.05;99632.97;3473151;41;20161;-70
2021/08/07 11:51:20;;;;;;;1.23;1.00;;;;;;;34.20;27.15;99644.94;3473550;41;20046;-69
2021/08/07 11:53:47;;;;;;;1.70;1.33;;;;;;;34.27;26.78;99638.66;3464133;41;20038;-70
2021/08/07 11:56:16;;;;;;;2.67;1.25;;;;;;;35.11;26.49;99654.63;3474015;41;20402;-72
2021/08/07 11:58:54;;;;;;;2.83;1.17;;;;;;;33.26;27.78;99636.16;3464935;41;20061;-69
2021/08/07 12:01:21;;;;;;;1.80;1.08;;;;;;;33.09;27.92;99637.50;3473557;41;20045;-71
2021/08/07 12:03:53;;;;;;;1.20;1.05;;;;;;;35.01;27.18;99635.75;3473739;41;20109;-70
2021/08/07 12:06:21;;;;;;;1.73;1.38;;;;;;;34.45;26.41;99628.28;3473518;41;20130;-70
2021/08/07 12:08:48;;;;;;;1.50;1.30;;;;;;;35.27;25.97;99627.72;3473628;41;20034;-70
2021/08/07 12:11:17;;;;;;;1.15;1.05;;;;;;;35.04;25.74;99630.88;3473534;41;20042;-70
2021/08/07 12:13:50;;;;;;;1.67;1.23;;;;;;;34.02;26.89;99630.53;3473612;41;20046;-71
2021/08/07 12:16:19;;;;;;;2.05;1.25;;;;;;;34.11;26.59;99627.69;3474250;41;20386;-71
2021/08/07 12:18:46;;;;;;;1.63;1.20;;;;;;;34.86;25.80;99623.53;3473795;41;20034;-71
2021/08/07 12:21:33;;;;;;;1.15;1.02;;;;;;;34.90;25.71;99616.03;3465032;41;20053;-71
2021/08/07 12:24:15;;;;;;;1.88;1.30;;;;;;;33.90;26.75;99618.91;3454845;41;20050;-69